Port Sulphur, Louisiana
Current Conditions -  °F | °C
As of 10:08 AM on Thursday 27 Nov 2014 (Local Time) from K1B7 Reporting Station
Clear Clear  
Wind Chill: 57°   Ceiling: Unl
Heat Index: 57°   Visibility: 10mi
Dew Point: 41°   Wind: 21mph
Humidity: 55%   Direction: 20°NNE
Pressure: 30.44"   Gusts: NA
Location:  29.49°N, 89.71°W
Report Text: K1B7 271608Z 02018KT 10SM SKC 14/05 A3044
Loading
Personal Weather Stations






























Interactive Weather Map New forecast layout! Learn more

10-Day Weather Forecast

Advertisements
Track Severe Weather on mobile